Time;durP1;ratioP1;P1;durP2;ratioP2;P2;SDS_P1;SDS_P2;PMS_P1;PMS_P2;Temp;Humidity;BMP_temperature;BMP_pressure;BME280_temperature;BME280_humidity;BME280_pressure;Samples;Min_cycle;Max_cycle;Signal;HPM_P1;HPM_P2
2023/06/19 00:00:25;;;;;;;8.15;7.65;;;;;;;;;;5095224;28;20024;-29
2023/06/19 00:02:51;;;;;;;7.40;7.00;;;;;;;;;;5095339;28;20043;-28
2023/06/19 00:05:17;;;;;;;7.57;7.18;;;;;;;;;;5095116;28;20119;-27
2023/06/19 00:07:43;;;;;;;6.75;6.35;;;;;;;;;;5095134;28;20028;-26
2023/06/19 00:10:09;;;;;;;6.10;5.80;;;;;;;;;;5095097;28;20020;-29
2023/06/19 00:12:35;;;;;;;5.63;5.32;;;;;;;;;;5095160;28;20085;-30
2023/06/19 00:15:01;;;;;;;5.57;5.28;;;;;;;;;;5094987;28;20020;-30
2023/06/19 00:17:28;;;;;;;8.63;8.13;;;;;;;;;;5094984;28;20089;-31
2023/06/19 00:19:54;;;;;;;6.28;5.90;;;;;;;;;;5095208;28;20024;-30
2023/06/19 00:22:21;;;;;;;6.43;6.03;;;;;;;;;;5095022;28;20024;-30
2023/06/19 00:24:47;;;;;;;8.30;7.80;;;;;;;;;;5095036;28;20016;-28
2023/06/19 00:27:13;;;;;;;6.10;5.80;;;;;;;;;;5094845;28;20027;-29
2023/06/19 00:29:39;;;;;;;6.85;6.45;;;;;;;;;;5094845;28;20032;-27
2023/06/19 00:32:06;;;;;;;6.38;5.97;;;;;;;;;;5094955;28;20020;-28
2023/06/19 00:34:32;;;;;;;7.47;7.07;;;;;;;;;;5094789;28;20020;-35
2023/06/19 00:36:58;;;;;;;6.07;5.78;;;;;;;;;;5094735;28;20024;-31
2023/06/19 00:39:25;;;;;;;6.22;5.82;;;;;;;;;;5095277;28;20030;-30
2023/06/19 00:41:54;;;;;;;5.70;5.40;;;;;;;;;;5094885;28;20093;-30
2023/06/19 00:44:20;;;;;;;7.40;7.00;;;;;;;;;;5094688;28;20028;-28
2023/06/19 00:46:47;;;;;;;6.90;6.50;;;;;;;;;;5095087;28;20055;-27
2023/06/19 00:49:15;;;;;;;6.60;6.20;;;;;;;;;;5095159;28;20020;-28
2023/06/19 00:51:41;;;;;;;6.68;6.28;;;;;;;;;;5094613;28;20055;-30
2023/06/19 00:54:07;;;;;;;5.70;5.40;;;;;;;;;;5095892;28;20032;-28
2023/06/19 00:56:34;;;;;;;5.85;5.55;;;;;;;;;;5098711;28;20046;-26
2023/06/19 00:59:00;;;;;;;6.22;5.93;;;;;;;;;;5098623;28;20108;-31
2023/06/19 01:01:27;;;;;;;6.70;6.30;;;;;;;;;;5098602;28;20040;-28
2023/06/19 01:03:53;;;;;;;5.78;5.47;;;;;;;;;;5098228;28;20028;-31
2023/06/19 01:06:28;;;;;;;6.55;6.15;;;;;;;;;;5080660;28;20024;-32
2023/06/19 01:08:54;;;;;;;6.35;6.05;;;;;;;;;;5098427;28;20496;-28
2023/06/19 01:11:21;;;;;;;6.88;6.47;;;;;;;;;;5098422;28;20150;-30
2023/06/19 01:13:58;;;;;;;7.22;6.82;;;;;;;;;;5098323;28;20354;-29
2023/06/19 01:16:24;;;;;;;7.13;6.72;;;;;;;;;;5098252;28;20048;-27
2023/06/19 01:18:51;;;;;;;8.30;7.82;;;;;;;;;;5098589;28;20023;-26
2023/06/19 01:21:17;;;;;;;6.72;6.32;;;;;;;;;;5098254;28;20031;-27
2023/06/19 01:23:44;;;;;;;7.50;7.10;;;;;;;;;;5098239;28;20051;-27
2023/06/19 01:26:11;;;;;;;8.45;7.97;;;;;;;;;;5098352;28;20359;-31
2023/06/19 01:28:38;;;;;;;7.80;7.40;;;;;;;;;;5098168;28;20031;-27
2023/06/19 01:31:09;;;;;;;8.10;7.60;;;;;;;;;;5098100;28;20016;-27
2023/06/19 01:33:37;;;;;;;7.75;7.35;;;;;;;;;;5098304;28;20515;-30
2023/06/19 01:36:03;;;;;;;6.63;6.32;;;;;;;;;;5098017;28;20340;-29
2023/06/19 01:38:31;;;;;;;8.13;7.63;;;;;;;;;;5097913;28;20067;-33
2023/06/19 01:40:57;;;;;;;8.50;8.00;;;;;;;;;;5097873;28;20072;-31
2023/06/19 01:43:24;;;;;;;6.85;6.45;;;;;;;;;;5097803;28;20060;-29
2023/06/19 01:45:50;;;;;;;8.65;8.15;;;;;;;;;;5097770;28;20358;-32
2023/06/19 01:48:16;;;;;;;9.13;8.63;;;;;;;;;;5097758;28;20351;-28
2023/06/19 01:50:47;;;;;;;7.70;7.20;;;;;;;;;;5097982;28;20034;-30
2023/06/19 01:53:13;;;;;;;7.50;7.07;;;;;;;;;;5079803;28;20515;-34
2023/06/19 01:55:39;;;;;;;7.72;7.32;;;;;;;;;;5097641;28;20035;-29
2023/06/19 01:58:06;;;;;;;8.77;8.27;;;;;;;;;;5097575;28;20027;-29
2023/06/19 02:00:35;;;;;;;7.80;7.30;;;;;;;;;;5097761;28;20039;-30
2023/06/19 02:03:01;;;;;;;6.75;6.35;;;;;;;;;;5097633;28;20112;-27
2023/06/19 02:05:27;;;;;;;7.32;6.93;;;;;;;;;;5096952;28;20044;-31
2023/06/19 02:07:53;;;;;;;5.70;5.40;;;;;;;;;;5097368;28;20024;-29
2023/06/19 02:10:21;;;;;;;7.60;7.20;;;;;;;;;;5097240;28;20412;-28
2023/06/19 02:12:47;;;;;;;7.72;7.32;;;;;;;;;;5097181;28;20036;-28
2023/06/19 02:15:13;;;;;;;8.77;8.27;;;;;;;;;;5097495;28;20031;-31
2023/06/19 02:17:42;;;;;;;7.25;6.85;;;;;;;;;;5097196;28;20459;-33
2023/06/19 02:20:09;;;;;;;6.15;5.85;;;;;;;;;;5097417;28;20027;-28
2023/06/19 02:22:35;;;;;;;6.25;5.95;;;;;;;;;;5097271;28;20085;-30
2023/06/19 02:25:01;;;;;;;7.70;7.30;;;;;;;;;;5096957;28;20050;-28
2023/06/19 02:27:27;;;;;;;6.70;6.30;;;;;;;;;;5097305;28;20024;-31
2023/06/19 02:29:54;;;;;;;7.50;7.07;;;;;;;;;;5096954;28;20036;-35
2023/06/19 02:32:20;;;;;;;7.35;6.95;;;;;;;;;;5096822;28;20028;-31
2023/06/19 02:34:46;;;;;;;7.07;6.68;;;;;;;;;;5097103;28;20020;-31
2023/06/19 02:37:12;;;;;;;8.02;7.40;;;;;;;;;;5097086;28;20158;-31
2023/06/19 02:39:38;;;;;;;8.80;8.30;;;;;;;;;;5096773;28;20106;-26
2023/06/19 02:42:04;;;;;;;7.45;7.05;;;;;;;;;;5096894;28;20020;-26
2023/06/19 02:44:31;;;;;;;7.97;7.47;;;;;;;;;;5097197;28;20320;-26
2023/06/19 02:46:57;;;;;;;7.93;7.43;;;;;;;;;;5096540;28;20066;-28
2023/06/19 02:49:23;;;;;;;8.32;7.72;;;;;;;;;;5096850;28;20016;-33
2023/06/19 02:51:49;;;;;;;8.32;7.88;;;;;;;;;;5096753;28;20020;-33
2023/06/19 02:54:15;;;;;;;8.90;8.40;;;;;;;;;;5096353;28;20443;-32
2023/06/19 02:56:41;;;;;;;7.57;7.18;;;;;;;;;;5096435;28;20023;-28
2023/06/19 02:59:07;;;;;;;7.80;7.32;;;;;;;;;;5096377;28;20363;-27
2023/06/19 03:01:34;;;;;;;7.20;6.80;;;;;;;;;;5096308;28;20024;-28
2023/06/19 03:04:00;;;;;;;7.13;6.70;;;;;;;;;;5095939;28;20031;-26
2023/06/19 03:06:26;;;;;;;7.15;6.75;;;;;;;;;;5096461;28;20354;-29
2023/06/19 03:08:52;;;;;;;6.35;6.05;;;;;;;;;;5096454;28;20020;-29
2023/06/19 03:11:18;;;;;;;8.20;7.78;;;;;;;;;;5096442;28;20039;-33
2023/06/19 03:13:46;;;;;;;7.03;6.57;;;;;;;;;;5096278;28;20031;-30
2023/06/19 03:16:12;;;;;;;6.78;6.38;;;;;;;;;;5095826;28;20488;-32
2023/06/19 03:18:38;;;;;;;6.43;6.03;;;;;;;;;;5096211;28;20030;-29
2023/06/19 03:21:04;;;;;;;6.82;6.43;;;;;;;;;;5078149;28;20350;-31
2023/06/19 03:23:30;;;;;;;7.07;6.68;;;;;;;;;;5095889;28;20027;-32
2023/06/19 03:25:57;;;;;;;7.97;7.50;;;;;;;;;;5095754;28;20043;-29
2023/06/19 03:28:24;;;;;;;7.20;6.70;;;;;;;;;;5096103;28;20020;-32
2023/06/19 03:30:50;;;;;;;6.30;5.90;;;;;;;;;;5096051;28;20023;-29
2023/06/19 03:33:16;;;;;;;7.25;6.85;;;;;;;;;;5095644;28;20103;-30
2023/06/19 03:35:43;;;;;;;5.53;5.22;;;;;;;;;;5095648;28;20032;-28
2023/06/19 03:38:09;;;;;;;6.00;5.70;;;;;;;;;;5095545;28;20020;-29
2023/06/19 03:40:36;;;;;;;7.35;6.95;;;;;;;;;;5095878;28;20078;-26
2023/06/19 03:43:02;;;;;;;7.30;6.90;;;;;;;;;;5095489;28;20020;-29
2023/06/19 03:45:28;;;;;;;6.93;6.53;;;;;;;;;;5095452;28;20035;-26
2023/06/19 03:47:54;;;;;;;7.00;6.60;;;;;;;;;;5095461;28;20031;-35
2023/06/19 03:50:20;;;;;;;6.15;5.85;;;;;;;;;;5095662;28;20470;-33
2023/06/19 03:52:46;;;;;;;6.95;6.55;;;;;;;;;;5095509;28;20047;-27
2023/06/19 03:55:12;;;;;;;7.28;6.88;;;;;;;;;;5095816;28;20028;-27
2023/06/19 03:57:38;;;;;;;6.93;6.55;;;;;;;;;;5095510;28;20470;-28
2023/06/19 04:00:10;;;;;;;7.13;6.72;;;;;;;;;;5095178;28;20141;-29
2023/06/19 04:02:37;;;;;;;6.20;5.88;;;;;;;;;;5078537;28;20119;-30
2023/06/19 04:05:04;;;;;;;7.65;7.25;;;;;;;;;;5094784;28;20097;-28
2023/06/19 04:07:31;;;;;;;7.75;7.35;;;;;;;;;;5095257;28;20032;-27
2023/06/19 04:09:57;;;;;;;7.38;6.97;;;;;;;;;;5094917;28;20024;-32
2023/06/19 04:12:24;;;;;;;7.97;7.53;;;;;;;;;;5095255;28;20020;-28
2023/06/19 04:14:50;;;;;;;7.10;6.70;;;;;;;;;;5094782;28;20461;-29
2023/06/19 04:17:16;;;;;;;6.63;6.25;;;;;;;;;;5094845;28;20082;-32
2023/06/19 04:19:42;;;;;;;7.13;6.72;;;;;;;;;;5094935;28;20024;-32
2023/06/19 04:22:08;;;;;;;7.20;6.80;;;;;;;;;;5094905;28;20332;-30
2023/06/19 04:24:35;;;;;;;6.38;6.03;;;;;;;;;;5095137;28;20054;-31
2023/06/19 04:27:01;;;;;;;7.20;6.78;;;;;;;;;;5095203;28;20028;-32
2023/06/19 04:29:31;;;;;;;7.30;6.80;;;;;;;;;;5094954;28;20520;-34
2023/06/19 04:32:03;;;;;;;7.60;7.20;;;;;;;;;;5094557;28;20024;-29
2023/06/19 04:34:29;;;;;;;7.13;6.72;;;;;;;;;;5094725;28;20355;-28
2023/06/19 04:36:58;;;;;;;7.05;6.50;;;;;;;;;;5094488;28;20458;-31
2023/06/19 04:39:25;;;;;;;6.85;6.45;;;;;;;;;;5076697;28;20032;-34
2023/06/19 04:41:51;;;;;;;7.25;6.75;;;;;;;;;;5094712;28;20028;-32
2023/06/19 04:44:17;;;;;;;6.43;5.78;;;;;;;;;;5094715;28;20036;-29
2023/06/19 04:46:46;;;;;;;7.60;7.10;;;;;;;;;;5094253;28;20039;-28
2023/06/19 04:49:13;;;;;;;7.78;7.30;;;;;;;;;;5094349;28;20057;-31
2023/06/19 04:51:39;;;;;;;8.15;7.55;;;;;;;;;;5094671;28;20031;-33
2023/06/19 04:54:05;;;;;;;7.35;6.85;;;;;;;;;;5094125;28;20024;-30
2023/06/19 04:56:32;;;;;;;7.18;6.68;;;;;;;;;;5094482;28;20039;-31
2023/06/19 04:58:59;;;;;;;6.28;5.82;;;;;;;;;;5094154;28;20016;-29
2023/06/19 05:01:30;;;;;;;7.05;6.65;;;;;;;;;;5094255;28;20086;-30
2023/06/19 05:03:56;;;;;;;6.95;6.13;;;;;;;;;;5094166;28;20035;-28
2023/06/19 05:06:26;;;;;;;6.53;6.13;;;;;;;;;;5094390;28;20392;-32
2023/06/19 05:08:52;;;;;;;5.95;5.60;;;;;;;;;;5094519;28;20099;-29
2023/06/19 05:11:19;;;;;;;6.82;6.43;;;;;;;;;;5094210;28;20087;-32
2023/06/19 05:13:45;;;;;;;7.10;6.43;;;;;;;;;;5094082;28;20016;-30
2023/06/19 05:16:15;;;;;;;7.13;6.60;;;;;;;;;;5094307;28;20032;-27
2023/06/19 05:18:41;;;;;;;8.13;6.63;;;;;;;;;;5093987;28;20089;-36
2023/06/19 05:21:07;;;;;;;7.63;6.70;;;;;;;;;;5094263;28;20123;-33
2023/06/19 05:23:35;;;;;;;6.38;5.97;;;;;;;;;;5093987;28;20028;-31
2023/06/19 05:26:01;;;;;;;6.95;5.78;;;;;;;;;;5093812;28;20035;-30
2023/06/19 05:28:27;;;;;;;6.57;6.18;;;;;;;;;;5094261;28;20020;-33
2023/06/19 05:30:53;;;;;;;7.45;6.85;;;;;;;;;;5094103;28;20077;-33
2023/06/19 05:33:19;;;;;;;7.03;6.47;;;;;;;;;;5093501;28;20393;-31
2023/06/19 05:35:52;;;;;;;6.85;6.25;;;;;;;;;;5093923;28;20091;-29
2023/06/19 05:38:18;;;;;;;7.40;6.78;;;;;;;;;;5093977;28;20020;-32
2023/06/19 05:40:44;;;;;;;10.18;6.13;;;;;;;;;;5096574;28;20462;-27
2023/06/19 05:43:10;;;;;;;5.85;5.38;;;;;;;;;;5097619;28;20039;-32
2023/06/19 05:45:36;;;;;;;8.82;7.75;;;;;;;;;;5097589;28;20122;-28
2023/06/19 05:48:02;;;;;;;7.03;6.53;;;;;;;;;;5079672;28;20125;-30
2023/06/19 05:50:29;;;;;;;7.75;6.55;;;;;;;;;;5098039;28;20419;-30
2023/06/19 05:52:55;;;;;;;8.07;6.30;;;;;;;;;;5097409;28;20024;-32
2023/06/19 05:55:21;;;;;;;12.02;6.50;;;;;;;;;;5097420;28;20024;-33
2023/06/19 05:57:47;;;;;;;6.65;6.15;;;;;;;;;;5097389;28;20089;-33
2023/06/19 06:00:14;;;;;;;8.90;6.57;;;;;;;;;;5097272;28;20340;-29
2023/06/19 06:03:00;;;;;;;9.25;6.38;;;;;;;;;;5506560;22;20048;-31
2023/06/19 06:05:26;;;;;;;11.68;6.57;;;;;;;;;;5097797;28;20036;-32
2023/06/19 06:07:53;;;;;;;8.10;6.85;;;;;;;;;;5097583;28;20350;-26
2023/06/19 06:10:23;;;;;;;6.45;6.05;;;;;;;;;;5097472;28;20020;-28
2023/06/19 06:12:49;;;;;;;7.00;6.45;;;;;;;;;;5097015;28;20024;-30
2023/06/19 06:15:16;;;;;;;8.15;6.38;;;;;;;;;;5079245;28;20024;-30
2023/06/19 06:17:42;;;;;;;6.70;6.30;;;;;;;;;;5097684;28;20024;-30
2023/06/19 06:20:12;;;;;;;6.75;6.35;;;;;;;;;;5097346;28;20024;-29
2023/06/19 06:22:42;;;;;;;7.35;6.10;;;;;;;;;;5097240;28;20021;-30
2023/06/19 06:25:10;;;;;;;7.78;7.28;;;;;;;;;;5096858;28;20020;-30
2023/06/19 06:27:36;;;;;;;8.77;6.85;;;;;;;;;;5096850;28;20039;-29
2023/06/19 06:30:02;;;;;;;8.07;7.18;;;;;;;;;;5096997;28;20453;-29
2023/06/19 06:32:30;;;;;;;10.40;6.65;;;;;;;;;;5096684;28;20016;-30
2023/06/19 06:34:57;;;;;;;7.85;7.20;;;;;;;;;;5096881;28;20016;-30
2023/06/19 06:37:23;;;;;;;7.00;6.50;;;;;;;;;;5096534;28;20335;-31
2023/06/19 06:39:49;;;;;;;6.55;6.15;;;;;;;;;;5096448;28;20028;-30
2023/06/19 06:42:16;;;;;;;11.00;7.20;;;;;;;;;;5096350;28;20108;-32
2023/06/19 06:44:42;;;;;;;9.02;8.20;;;;;;;;;;5096569;28;20028;-30
2023/06/19 06:47:08;;;;;;;7.45;6.68;;;;;;;;;;5096281;28;20078;-29
2023/06/19 06:49:36;;;;;;;6.68;6.25;;;;;;;;;;5096722;28;20332;-32
2023/06/19 06:52:03;;;;;;;7.18;6.57;;;;;;;;;;5077855;28;20024;-28
2023/06/19 06:54:29;;;;;;;9.32;8.50;;;;;;;;;;5096336;28;20035;-29
2023/06/19 06:56:59;;;;;;;6.95;6.38;;;;;;;;;;5078466;28;20450;-33
2023/06/19 06:59:26;;;;;;;12.60;7.55;;;;;;;;;;5096275;28;20055;-32
2023/06/19 07:01:53;;;;;;;6.60;6.10;;;;;;;;;;5078375;28;20028;-30
2023/06/19 07:04:19;;;;;;;6.97;6.43;;;;;;;;;;5095910;28;20514;-30
2023/06/19 07:06:45;;;;;;;7.05;6.45;;;;;;;;;;5095923;28;20093;-29
2023/06/19 07:09:12;;;;;;;7.57;6.88;;;;;;;;;;5095893;28;20024;-31
2023/06/19 07:11:38;;;;;;;7.45;6.75;;;;;;;;;;5078019;28;20024;-31
2023/06/19 07:14:04;;;;;;;8.45;6.30;;;;;;;;;;5096400;28;20016;-31
2023/06/19 07:16:30;;;;;;;8.00;6.95;;;;;;;;;;5095853;28;20462;-28
2023/06/19 07:18:56;;;;;;;8.95;6.25;;;;;;;;;;5096130;28;20052;-32
2023/06/19 07:21:22;;;;;;;7.75;6.97;;;;;;;;;;5095635;28;20488;-29
2023/06/19 07:23:49;;;;;;;7.50;6.97;;;;;;;;;;5095598;28;20110;-29
2023/06/19 07:26:15;;;;;;;6.40;5.90;;;;;;;;;;5095883;28;20027;-32
2023/06/19 07:28:42;;;;;;;7.68;7.07;;;;;;;;;;5096234;28;20107;-31
2023/06/19 07:31:08;;;;;;;12.02;7.20;;;;;;;;;;5095864;28;20105;-27
2023/06/19 07:33:37;;;;;;;7.70;6.95;;;;;;;;;;5095687;28;20020;-32
2023/06/19 07:36:03;;;;;;;7.97;7.20;;;;;;;;;;5095923;28;20028;-30
2023/06/19 07:38:29;;;;;;;8.20;7.40;;;;;;;;;;5096157;28;20020;-30
2023/06/19 07:40:56;;;;;;;7.47;6.78;;;;;;;;;;5095701;28;20028;-29
2023/06/19 07:43:25;;;;;;;9.00;6.47;;;;;;;;;;5077288;28;20028;-31
2023/06/19 07:45:51;;;;;;;7.70;7.10;;;;;;;;;;5095870;28;20435;-31
2023/06/19 07:48:17;;;;;;;7.68;6.97;;;;;;;;;;5095468;28;20050;-28
2023/06/19 07:50:43;;;;;;;7.50;6.78;;;;;;;;;;5095402;28;20027;-31
2023/06/19 07:53:09;;;;;;;9.57;7.57;;;;;;;;;;5095072;28;20031;-35
2023/06/19 07:55:35;;;;;;;8.73;7.10;;;;;;;;;;5095144;28;20028;-30
2023/06/19 07:58:02;;;;;;;7.72;6.90;;;;;;;;;;5095356;28;20024;-33
2023/06/19 08:00:29;;;;;;;9.18;7.35;;;;;;;;;;5095291;28;20032;-29
2023/06/19 08:02:55;;;;;;;9.57;8.68;;;;;;;;;;5094642;28;20370;-27
2023/06/19 08:05:21;;;;;;;6.93;6.40;;;;;;;;;;5095088;28;20028;-31
2023/06/19 08:07:47;;;;;;;8.02;7.28;;;;;;;;;;5095078;28;20383;-30
2023/06/19 08:10:13;;;;;;;11.30;7.20;;;;;;;;;;5095227;28;20020;-28
2023/06/19 08:12:41;;;;;;;8.27;7.43;;;;;;;;;;5094847;28;20104;-28
2023/06/19 08:15:08;;;;;;;8.85;7.93;;;;;;;;;;5095059;28;20070;-30
2023/06/19 08:17:35;;;;;;;9.52;8.48;;;;;;;;;;5076926;28;20028;-31
2023/06/19 08:20:01;;;;;;;10.60;7.18;;;;;;;;;;5094824;28;20028;-30
2023/06/19 08:22:27;;;;;;;15.40;7.22;;;;;;;;;;5094576;28;20401;-30
2023/06/19 08:24:53;;;;;;;7.93;6.80;;;;;;;;;;5094648;28;20103;-29
2023/06/19 08:27:20;;;;;;;12.18;6.68;;;;;;;;;;5094866;28;20042;-31
2023/06/19 08:29:46;;;;;;;19.38;6.28;;;;;;;;;;5094880;28;20077;-32
2023/06/19 08:32:12;;;;;;;8.45;7.25;;;;;;;;;;5094544;28;20024;-32
2023/06/19 08:34:38;;;;;;;11.73;6.55;;;;;;;;;;5094632;28;20027;-29
2023/06/19 08:37:04;;;;;;;14.45;7.63;;;;;;;;;;5094560;28;20051;-32
2023/06/19 08:39:30;;;;;;;8.77;7.03;;;;;;;;;;5094678;28;20035;-31
2023/06/19 08:41:57;;;;;;;7.47;6.90;;;;;;;;;;5094153;28;20358;-31
2023/06/19 08:44:23;;;;;;;11.93;8.23;;;;;;;;;;5094134;28;20443;-30
2023/06/19 08:46:49;;;;;;;16.55;7.53;;;;;;;;;;5094098;28;20039;-31
2023/06/19 08:49:15;;;;;;;13.45;7.00;;;;;;;;;;5076241;28;20020;-33
2023/06/19 08:51:41;;;;;;;19.35;7.93;;;;;;;;;;5076295;28;20028;-32
2023/06/19 08:54:08;;;;;;;15.85;7.57;;;;;;;;;;5094379;28;20430;-30
2023/06/19 08:56:37;;;;;;;11.63;6.82;;;;;;;;;;5094390;28;20031;-31
2023/06/19 08:59:13;;;;;;;9.25;8.02;;;;;;;;;;5093962;28;20032;-28
2023/06/19 09:01:39;;;;;;;11.27;7.50;;;;;;;;;;5076512;28;20047;-30
2023/06/19 09:04:09;;;;;;;7.47;6.70;;;;;;;;;;5093552;28;20047;-32
2023/06/19 09:06:37;;;;;;;12.27;7.72;;;;;;;;;;5094079;28;20097;-28
2023/06/19 09:09:10;;;;;;;12.07;8.15;;;;;;;;;;5076713;28;20020;-30
2023/06/19 09:11:43;;;;;;;13.30;9.07;;;;;;;;;;5093974;28;20031;-32
2023/06/19 09:14:10;;;;;;;12.15;8.77;;;;;;;;;;5094432;28;20403;-28
2023/06/19 09:16:37;;;;;;;7.75;6.97;;;;;;;;;;5097942;28;20051;-32
2023/06/19 09:19:03;;;;;;;10.68;9.27;;;;;;;;;;5097767;28;20035;-31
2023/06/19 09:21:29;;;;;;;11.05;7.95;;;;;;;;;;5097928;28;20024;-28
2023/06/19 09:24:02;;;;;;;10.60;7.80;;;;;;;;;;5097954;28;20032;-34
2023/06/19 09:26:28;;;;;;;9.07;8.18;;;;;;;;;;5098117;28;20028;-28
2023/06/19 09:28:55;;;;;;;7.93;7.15;;;;;;;;;;5097875;28;20016;-30
2023/06/19 09:31:21;;;;;;;9.07;7.07;;;;;;;;;;5097953;28;20446;-31
2023/06/19 09:33:47;;;;;;;14.95;8.18;;;;;;;;;;5097877;28;20024;-30
2023/06/19 09:36:13;;;;;;;8.23;6.97;;;;;;;;;;5098412;28;20093;-31
2023/06/19 09:38:43;;;;;;;13.70;7.50;;;;;;;;;;5098122;28;20051;-29
2023/06/19 09:41:09;;;;;;;8.70;7.93;;;;;;;;;;5097804;28;20081;-30
2023/06/19 09:43:38;;;;;;;10.80;8.23;;;;;;;;;;5097976;28;20439;-27
2023/06/19 09:46:05;;;;;;;9.35;8.13;;;;;;;;;;5079744;28;20111;-30
2023/06/19 09:48:34;;;;;;;9.60;8.23;;;;;;;;;;5097901;28;20073;-30
2023/06/19 09:51:01;;;;;;;9.60;7.68;;;;;;;;;;5097604;28;20016;-31
2023/06/19 09:53:28;;;;;;;16.67;9.05;;;;;;;;;;5097421;28;20039;-30
2023/06/19 09:55:55;;;;;;;19.35;7.80;;;;;;;;;;5097445;28;20046;-32
2023/06/19 09:58:22;;;;;;;8.75;7.95;;;;;;;;;;5098481;28;20396;-30
2023/06/19 10:00:50;;;;;;;22.55;9.10;;;;;;;;;;5097401;28;20482;-28
2023/06/19 10:03:17;;;;;;;17.90;9.20;;;;;;;;;;5097202;28;20408;-32
2023/06/19 10:05:44;;;;;;;13.45;8.18;;;;;;;;;;5097225;28;20043;-30
2023/06/19 10:08:10;;;;;;;27.67;8.95;;;;;;;;;;5097321;28;20031;-30
2023/06/19 10:10:36;;;;;;;26.67;9.85;;;;;;;;;;5097050;28;20085;-32
2023/06/19 10:13:13;;;;;;;14.35;7.90;;;;;;;;;;5097503;28;20028;-31
2023/06/19 10:15:43;;;;;;;16.75;7.70;;;;;;;;;;5097021;28;20028;-31
2023/06/19 10:18:13;;;;;;;14.13;7.63;;;;;;;;;;5097260;28;20031;-30
2023/06/19 10:20:40;;;;;;;15.82;8.60;;;;;;;;;;5096998;28;20085;-33
2023/06/19 10:23:08;;;;;;;9.00;8.10;;;;;;;;;;5096989;28;20036;-31
2023/06/19 10:25:35;;;;;;;18.15;7.20;;;;;;;;;;5096446;28;20080;-29
2023/06/19 10:28:01;;;;;;;12.25;7.55;;;;;;;;;;5096688;28;20122;-30
2023/06/19 10:30:29;;;;;;;11.98;8.02;;;;;;;;;;5097021;28;20028;-31
2023/06/19 10:32:55;;;;;;;9.23;8.38;;;;;;;;;;5096543;28;20111;-31
2023/06/19 10:35:23;;;;;;;20.88;8.57;;;;;;;;;;5096612;28;20458;-30
2023/06/19 10:37:50;;;;;;;10.85;7.10;;;;;;;;;;5096402;28;20020;-31
2023/06/19 10:40:16;;;;;;;16.58;7.93;;;;;;;;;;5096557;28;20032;-32
2023/06/19 10:42:43;;;;;;;16.00;8.00;;;;;;;;;;5096437;28;20024;-32
2023/06/19 10:45:12;;;;;;;13.43;7.60;;;;;;;;;;5096302;28;20035;-31
2023/06/19 10:47:39;;;;;;;18.80;9.07;;;;;;;;;;5096301;28;20024;-29
2023/06/19 10:50:06;;;;;;;31.48;8.93;;;;;;;;;;5096372;28;20184;-30
2023/06/19 10:52:33;;;;;;;23.08;8.80;;;;;;;;;;5096395;28;20142;-30
2023/06/19 10:54:59;;;;;;;34.45;9.05;;;;;;;;;;5096299;28;20061;-30
2023/06/19 10:57:29;;;;;;;32.55;8.93;;;;;;;;;;5096489;28;20210;-29
2023/06/19 10:59:55;;;;;;;33.63;11.83;;;;;;;;;;5078813;28;20048;-28
2023/06/19 11:02:22;;;;;;;17.05;9.73;;;;;;;;;;5096153;28;20070;-31
2023/06/19 11:04:49;;;;;;;13.13;8.10;;;;;;;;;;5096713;28;20339;-28
2023/06/19 11:07:15;;;;;;;11.18;8.00;;;;;;;;;;5096282;28;20043;-30
2023/06/19 11:09:42;;;;;;;8.60;7.78;;;;;;;;;;5096502;28;20024;-31
2023/06/19 11:12:08;;;;;;;12.25;7.10;;;;;;;;;;5095806;28;20020;-31
2023/06/19 11:14:39;;;;;;;15.63;9.05;;;;;;;;;;5095895;28;20028;-30
2023/06/19 11:17:09;;;;;;;15.77;9.10;;;;;;;;;;5096156;28;20075;-31
2023/06/19 11:19:37;;;;;;;7.68;7.00;;;;;;;;;;5077898;28;20051;-32
2023/06/19 11:22:04;;;;;;;10.88;7.38;;;;;;;;;;5095558;28;20028;-28
2023/06/19 11:24:30;;;;;;;9.70;6.95;;;;;;;;;;5077718;28;20093;-31
2023/06/19 11:26:58;;;;;;;12.93;7.45;;;;;;;;;;5095774;28;20374;-30
2023/06/19 11:29:35;;;;;;;9.88;8.27;;;;;;;;;;5095538;28;20069;-30
2023/06/19 11:32:13;;;;;;;8.95;7.95;;;;;;;;;;5095374;28;20123;-28
2023/06/19 11:34:39;;;;;;;14.00;7.72;;;;;;;;;;5095753;28;20099;-32
2023/06/19 11:37:15;;;;;;;16.85;8.35;;;;;;;;;;5095033;28;20396;-29
2023/06/19 11:39:41;;;;;;;11.55;8.20;;;;;;;;;;5095233;28;20089;-31
2023/06/19 11:42:08;;;;;;;18.10;8.23;;;;;;;;;;5095295;28;20024;-29
2023/06/19 11:44:35;;;;;;;10.02;8.10;;;;;;;;;;5095734;28;20446;-30
2023/06/19 11:47:02;;;;;;;8.30;7.60;;;;;;;;;;5095473;28;20031;-30
2023/06/19 11:49:32;;;;;;;13.60;9.48;;;;;;;;;;5095133;28;20028;-31
2023/06/19 11:51:58;;;;;;;19.02;9.60;;;;;;;;;;5094940;28;20031;-31
2023/06/19 11:54:24;;;;;;;34.33;10.63;;;;;;;;;;5095134;28;20109;-30
2023/06/19 11:56:50;;;;;;;23.77;8.90;;;;;;;;;;5095354;28;20104;-31
2023/06/19 11:59:17;;;;;;;13.18;9.02;;;;;;;;;;5095040;28;20039;-27
2023/06/19 12:01:43;;;;;;;27.10;10.15;;;;;;;;;;5095214;28;20040;-31
2023/06/19 12:04:09;;;;;;;25.60;8.80;;;;;;;;;;5094616;28;20060;-27
2023/06/19 12:06:36;;;;;;;11.07;8.88;;;;;;;;;;5094813;28;20027;-31
2023/06/19 12:09:05;;;;;;;13.63;8.65;;;;;;;;;;5094833;28;20016;-28
2023/06/19 12:11:32;;;;;;;22.23;8.00;;;;;;;;;;5060783;28;20032;-30
2023/06/19 12:13:58;;;;;;;14.02;8.25;;;;;;;;;;5076859;28;20020;-32
2023/06/19 12:16:25;;;;;;;11.20;9.15;;;;;;;;;;5095108;28;20032;-30
2023/06/19 12:18:51;;;;;;;16.80;10.50;;;;;;;;;;5094996;28;20020;-31
2023/06/19 12:21:17;;;;;;;9.55;7.45;;;;;;;;;;5094999;28;20027;-30
2023/06/19 12:23:43;;;;;;;14.65;9.07;;;;;;;;;;5094738;28;20054;-30
2023/06/19 12:26:09;;;;;;;11.13;8.45;;;;;;;;;;5094928;28;20028;-29
2023/06/19 12:28:35;;;;;;;20.52;9.15;;;;;;;;;;5094948;28;20036;-31
2023/06/19 12:31:03;;;;;;;12.40;8.90;;;;;;;;;;5094808;28;20084;-30
2023/06/19 12:33:32;;;;;;;9.30;8.50;;;;;;;;;;5094887;28;20459;-30
2023/06/19 12:35:59;;;;;;;12.63;7.50;;;;;;;;;;5094655;28;20100;-32
2023/06/19 12:38:25;;;;;;;10.07;8.13;;;;;;;;;;5094524;28;20020;-33
2023/06/19 12:40:51;;;;;;;13.48;10.02;;;;;;;;;;5094492;28;20024;-28
2023/06/19 12:43:17;;;;;;;10.38;8.25;;;;;;;;;;5094658;28;20026;-30
2023/06/19 12:45:43;;;;;;;9.65;8.05;;;;;;;;;;5076522;28;20481;-31
2023/06/19 12:48:11;;;;;;;11.35;9.52;;;;;;;;;;5076681;28;20089;-31
2023/06/19 12:50:37;;;;;;;9.70;8.35;;;;;;;;;;5096655;28;20020;-30
2023/06/19 12:53:03;;;;;;;12.35;9.50;;;;;;;;;;5098677;28;20107;-30
2023/06/19 12:55:29;;;;;;;16.02;8.77;;;;;;;;;;5098566;28;20024;-33
2023/06/19 12:57:55;;;;;;;9.73;8.07;;;;;;;;;;5098862;28;20423;-30
2023/06/19 13:00:21;;;;;;;9.15;8.45;;;;;;;;;;5098410;28;20095;-32
2023/06/19 13:02:48;;;;;;;12.25;8.82;;;;;;;;;;5098532;28;20070;-31
2023/06/19 13:05:14;;;;;;;17.83;8.18;;;;;;;;;;5080562;28;20157;-30
2023/06/19 13:07:40;;;;;;;16.77;9.32;;;;;;;;;;5098510;28;20099;-27
2023/06/19 13:10:06;;;;;;;9.18;8.30;;;;;;;;;;5098678;28;20459;-31
2023/06/19 13:12:33;;;;;;;9.60;8.63;;;;;;;;;;5098561;28;20033;-28
2023/06/19 13:14:59;;;;;;;9.48;8.25;;;;;;;;;;5098457;28;20081;-29
2023/06/19 13:17:25;;;;;;;10.63;8.50;;;;;;;;;;5098373;28;20447;-29
2023/06/19 13:19:51;;;;;;;8.68;8.02;;;;;;;;;;5098203;28;20351;-30
2023/06/19 13:22:17;;;;;;;8.88;8.10;;;;;;;;;;5080459;28;20027;-29
2023/06/19 13:24:44;;;;;;;9.75;7.72;;;;;;;;;;5098180;28;20024;-29
2023/06/19 13:27:10;;;;;;;10.13;8.70;;;;;;;;;;5099091;28;20349;-28
2023/06/19 13:29:36;;;;;;;9.82;8.77;;;;;;;;;;5098225;28;20052;-28
2023/06/19 13:32:03;;;;;;;12.52;8.93;;;;;;;;;;5098877;28;20392;-31
2023/06/19 13:34:29;;;;;;;9.18;8.50;;;;;;;;;;5080110;28;20446;-28
2023/06/19 13:36:55;;;;;;;10.30;8.82;;;;;;;;;;5097900;28;20036;-30
2023/06/19 13:39:21;;;;;;;12.63;10.30;;;;;;;;;;5080047;28;20398;-30
2023/06/19 13:41:48;;;;;;;9.18;8.43;;;;;;;;;;5097725;28;20359;-31
2023/06/19 13:44:14;;;;;;;9.15;8.07;;;;;;;;;;5079877;28;20469;-27
2023/06/19 13:46:40;;;;;;;10.20;8.55;;;;;;;;;;5097586;28;20032;-31
2023/06/19 13:49:06;;;;;;;10.35;9.38;;;;;;;;;;5097864;28;20069;-27
2023/06/19 13:51:32;;;;;;;10.63;9.55;;;;;;;;;;5097839;28;20020;-32
2023/06/19 13:53:58;;;;;;;10.25;9.20;;;;;;;;;;5079598;28;20127;-30
2023/06/19 13:56:25;;;;;;;9.15;8.35;;;;;;;;;;5097508;28;20085;-27
2023/06/19 13:58:51;;;;;;;10.93;9.90;;;;;;;;;;5097495;28;20035;-29
2023/06/19 14:01:17;;;;;;;11.43;8.60;;;;;;;;;;5097418;28;20324;-32
2023/06/19 14:03:43;;;;;;;16.10;9.98;;;;;;;;;;5097227;28;20052;-28
2023/06/19 14:06:09;;;;;;;11.68;9.70;;;;;;;;;;5097337;28;20077;-31
2023/06/19 14:08:35;;;;;;;10.63;7.97;;;;;;;;;;5079498;28;20246;-29
2023/06/19 14:11:02;;;;;;;11.35;8.43;;;;;;;;;;5097924;28;20016;-29
2023/06/19 14:13:29;;;;;;;14.00;8.88;;;;;;;;;;5097104;28;20045;-31
2023/06/19 14:15:55;;;;;;;9.98;9.07;;;;;;;;;;5097156;28;20145;-29
2023/06/19 14:18:21;;;;;;;11.15;8.48;;;;;;;;;;5097085;28;20096;-29
2023/06/19 14:20:47;;;;;;;12.55;9.45;;;;;;;;;;5097320;28;20028;-30
2023/06/19 14:23:13;;;;;;;9.85;9.15;;;;;;;;;;5096983;28;20033;-28
2023/06/19 14:25:39;;;;;;;12.63;8.75;;;;;;;;;;5097140;28;20024;-29
2023/06/19 14:28:05;;;;;;;10.23;9.32;;;;;;;;;;5096873;28;20028;-29
2023/06/19 14:30:31;;;;;;;9.55;8.73;;;;;;;;;;5097151;28;20362;-30
2023/06/19 14:32:58;;;;;;;10.48;9.38;;;;;;;;;;5096747;28;20020;-31
2023/06/19 14:35:24;;;;;;;9.35;8.40;;;;;;;;;;5097041;28;20020;-29